ADD weather

Addis Ababa Bole International Airport
Addis Ababa, Addis Ababa, Ethiopia

Public forecast

Using degrees Celsius for public forecast. Weather courtesy of forecast.io.

Current aviation weather report (METAR) for Addis Ababa Bole International Airport

Report is more than 6 hours old.

Retrieved 2019/11/17 05:00 UTC (1 day ago):

HAAB 170500Z 06010KT 9999 FEW025 16/08 Q1025

Aviation forecast (TAF) for Addis Ababa Bole International Airport

Forecast is more than 12 hours old.

Retrieved 2019-11-17 00:20 UTC (1 day ago):

TAF HAAB 162130Z 1700/1806 08006KT 9999 SCT030 FEW090 BECMG 1707/1712 12008KT BKN027